Time;durP1;ratioP1;P1;durP2;ratioP2;P2;SDS_P1;SDS_P2;PMS_P1;PMS_P2;Temp;Humidity;BMP_temperature;BMP_pressure;BME280_temperature;BME280_humidity;BME280_pressure;Samples;Min_cycle;Max_cycle;Signal;HPM_P1;HPM_P2
2021/04/22 00:02:16;;;;;;;17.38;4.75;;;4.40;73.20;;;;;;5086565;27;20027;-81
2021/04/22 00:04:42;;;;;;;20.20;5.47;;;4.40;73.20;;;;;;5076492;27;20027;-81
2021/04/22 00:07:08;;;;;;;24.77;4.30;;;4.40;73.40;;;;;;5101702;27;20501;-82
2021/04/22 00:09:33;;;;;;;24.60;4.57;;;4.40;73.70;;;;;;5123933;27;20039;-81
2021/04/22 00:11:59;;;;;;;18.50;4.50;;;4.50;73.60;;;;;;5122589;27;20374;-81
2021/04/22 00:14:25;;;;;;;21.73;4.35;;;4.50;73.80;;;;;;5119754;27;21731;-81
2021/04/22 00:16:51;;;;;;;18.23;4.20;;;4.60;74.00;;;;;;5121651;27;20339;-81
2021/04/22 00:19:17;;;;;;;20.42;4.55;;;4.60;74.90;;;;;;5120968;27;20049;-81
2021/04/22 00:21:44;;;;;;;17.88;4.35;;;4.60;74.10;;;;;;5125462;27;20035;-81
2021/04/22 00:24:10;;;;;;;21.73;4.22;;;4.70;74.10;;;;;;5122491;27;20041;-81
2021/04/22 00:26:36;;;;;;;20.80;4.45;;;4.70;74.30;;;;;;5079652;27;20431;-81
2021/04/22 00:29:02;;;;;;;22.63;4.68;;;4.70;74.30;;;;;;5082845;27;20089;-82
2021/04/22 00:31:32;;;;;;;12.70;3.50;;;4.70;74.30;;;;;;5108843;27;20042;-81
2021/04/22 00:33:58;;;;;;;19.10;4.03;;;4.70;74.50;;;;;;5099623;27;20039;-81
2021/04/22 00:36:24;;;;;;;18.52;3.35;;;4.60;74.60;;;;;;5114778;27;20031;-81
2021/04/22 00:38:49;;;;;;;18.40;3.50;;;4.60;74.80;;;;;;5118102;27;20043;-81
2021/04/22 00:41:15;;;;;;;19.73;3.92;;;4.60;74.80;;;;;;5120513;27;20046;-81
2021/04/22 00:43:43;;;;;;;16.15;3.40;;;4.70;74.70;;;;;;5106951;27;20027;-81
2021/04/22 00:46:16;;;;;;;20.85;4.15;;;4.70;74.80;;;;;;5121716;27;20111;-81
2021/04/22 00:48:43;;;;;;;17.73;3.55;;;4.70;74.70;;;;;;5100224;27;20049;-81
2021/04/22 00:51:08;;;;;;;22.23;4.00;;;4.80;75.10;;;;;;5122239;27;20039;-81
2021/04/22 00:53:35;;;;;;;19.15;3.60;;;4.80;75.00;;;;;;5110435;27;20031;-81
2021/04/22 00:56:01;;;;;;;20.08;3.97;;;4.80;74.80;;;;;;5101597;27;20057;-81
2021/04/22 00:58:27;;;;;;;17.65;3.85;;;4.70;74.70;;;;;;5077392;27;20047;-81
2021/04/22 01:00:59;;;;;;;17.45;3.88;;;4.70;74.80;;;;;;5116735;27;20413;-81
2021/04/22 01:03:26;;;;;;;18.23;3.67;;;4.60;74.70;;;;;;5129205;27;20478;-81
2021/04/22 01:05:56;;;;;;;12.50;3.65;;;4.60;75.00;;;;;;5093380;27;20030;-83
2021/04/22 01:08:22;;;;;;;17.08;3.38;;;4.50;74.90;;;;;;5094476;27;20103;-83
2021/04/22 01:10:48;;;;;;;16.98;3.38;;;4.40;74.90;;;;;;5104227;27;20495;-83
2021/04/22 01:13:14;;;;;;;14.68;3.50;;;4.40;75.10;;;;;;5109691;27;20035;-81
2021/04/22 01:15:40;;;;;;;16.42;3.17;;;4.30;75.30;;;;;;5105584;27;20031;-82
2021/04/22 01:18:07;;;;;;;20.75;3.40;;;4.30;75.60;;;;;;5112432;27;20027;-81
2021/04/22 01:20:37;;;;;;;15.77;2.90;;;4.30;75.50;;;;;;5086794;27;20684;-82
2021/04/22 01:23:04;;;;;;;19.10;3.05;;;4.30;75.50;;;;;;5108930;27;20046;-81
2021/04/22 01:25:39;;;;;;;20.00;3.35;;;4.40;75.70;;;;;;5116635;27;20114;-82
2021/04/22 01:28:07;;;;;;;14.85;3.13;;;4.40;75.80;;;;;;5095576;27;20089;-81
2021/04/22 01:30:40;;;;;;;15.18;3.47;;;4.40;75.80;;;;;;5104641;27;20457;-81
2021/04/22 01:33:12;;;;;;;17.52;3.70;;;4.40;75.60;;;;;;5106029;27;20039;-82
2021/04/22 01:35:40;;;;;;;17.92;3.60;;;4.50;75.60;;;;;;5096071;28;20031;-82
2021/04/22 01:38:07;;;;;;;15.05;2.60;;;4.50;75.80;;;;;;5119289;27;20027;-81
2021/04/22 01:40:34;;;;;;;13.23;2.95;;;4.50;75.60;;;;;;5118891;27;20118;-82
2021/04/22 01:43:00;;;;;;;17.48;2.80;;;4.70;75.50;;;;;;5119917;27;20499;-81
2021/04/22 01:45:26;;;;;;;17.65;3.33;;;4.60;75.60;;;;;;5119188;27;20027;-81
2021/04/22 01:47:53;;;;;;;17.52;3.05;;;4.60;75.60;;;;;;5115969;27;20037;-82
2021/04/22 01:50:23;;;;;;;20.48;3.17;;;4.70;75.60;;;;;;5120113;27;20039;-81
2021/04/22 01:52:49;;;;;;;18.38;2.97;;;4.70;75.40;;;;;;5109944;27;20122;-82
2021/04/22 01:55:21;;;;;;;16.98;2.67;;;4.80;75.50;;;;;;5081269;28;20473;-81
2021/04/22 01:57:47;;;;;;;17.50;3.05;;;4.80;75.40;;;;;;5103967;27;20090;-82
2021/04/22 02:00:17;;;;;;;19.77;3.10;;;4.80;74.90;;;;;;5104591;27;20455;-82
2021/04/22 02:02:43;;;;;;;12.60;2.83;;;4.80;74.50;;;;;;5106453;27;20074;-81
2021/04/22 02:05:13;;;;;;;18.27;3.25;;;4.90;74.40;;;;;;5079099;27;20066;-81
2021/04/22 02:07:39;;;;;;;20.90;2.95;;;5.00;74.40;;;;;;5102069;27;20358;-81
2021/04/22 02:10:07;;;;;;;15.55;2.92;;;5.00;74.20;;;;;;5093545;28;20386;-82
2021/04/22 02:12:33;;;;;;;18.00;3.78;;;5.00;74.10;;;;;;5106580;27;20314;-80
2021/04/22 02:14:59;;;;;;;18.27;2.60;;;5.00;74.80;;;;;;5155605;22;20136;-80
2021/04/22 02:17:25;;;;;;;22.92;3.25;;;4.90;74.30;;;;;;5054841;28;20712;-80
2021/04/22 02:19:51;;;;;;;18.67;3.33;;;4.90;74.20;;;;;;5065162;28;20035;-78
2021/04/22 02:22:16;;;;;;;15.88;2.95;;;4.80;74.10;;;;;;5068045;28;20040;-79
2021/04/22 02:24:46;;;;;;;15.75;2.88;;;4.80;74.20;;;;;;5072865;28;20032;-79
2021/04/22 02:27:12;;;;;;;21.52;2.92;;;4.80;74.30;;;;;;5070548;28;20046;-80
2021/04/22 02:29:37;;;;;;;9.70;2.42;;;4.70;74.40;;;;;;5068363;28;20044;-79
2021/04/22 02:32:04;;;;;;;14.35;2.55;;;4.70;74.50;;;;;;5055566;28;20112;-79
2021/04/22 02:34:30;;;;;;;19.95;2.58;;;4.70;74.60;;;;;;5057365;28;20072;-79
2021/04/22 02:36:56;;;;;;;15.70;2.88;;;4.70;74.70;;;;;;5067761;28;20032;-80
2021/04/22 02:39:22;;;;;;;15.23;2.60;;;4.70;74.80;;;;;;5052030;28;20093;-79
2021/04/22 02:41:48;;;;;;;19.88;3.50;;;4.70;74.70;;;;;;5070694;28;20039;-79
2021/04/22 02:44:15;;;;;;;17.92;3.17;;;4.60;74.60;;;;;;5047794;28;20095;-79
2021/04/22 02:46:40;;;;;;;14.13;2.60;;;4.60;75.30;;;;;;5052263;28;20048;-79
2021/04/22 02:49:06;;;;;;;21.38;3.65;;;4.60;74.70;;;;;;5066293;28;20105;-79
2021/04/22 02:51:32;;;;;;;18.55;2.83;;;4.60;74.90;;;;;;5054237;28;20410;-79
2021/04/22 02:53:59;;;;;;;11.77;2.47;;;4.60;74.90;;;;;;5067726;28;20029;-79
2021/04/22 02:56:24;;;;;;;12.52;3.25;;;4.70;74.90;;;;;;5068020;28;20028;-79
2021/04/22 02:58:50;;;;;;;12.48;2.83;;;4.70;75.10;;;;;;5066297;28;20517;-79
2021/04/22 03:01:16;;;;;;;14.40;3.00;;;4.70;75.30;;;;;;5051979;28;20048;-80
2021/04/22 03:03:42;;;;;;;21.40;3.05;;;4.70;75.00;;;;;;5074020;28;20042;-80
2021/04/22 03:06:08;;;;;;;19.90;2.88;;;4.80;75.10;;;;;;5065188;28;20514;-79
2021/04/22 03:08:33;;;;;;;18.23;3.30;;;4.80;75.20;;;;;;5085678;28;20482;-79
2021/04/22 03:10:59;;;;;;;11.82;2.50;;;4.90;75.00;;;;;;5078673;28;20035;-79
2021/04/22 03:13:25;;;;;;;16.45;2.97;;;4.90;74.70;;;;;;5080833;28;20060;-79
2021/04/22 03:15:51;;;;;;;15.35;2.72;;;5.00;74.70;;;;;;5084548;28;20376;-79
2021/04/22 03:18:17;;;;;;;16.38;2.75;;;5.00;74.50;;;;;;5082580;28;20053;-79
2021/04/22 03:20:43;;;;;;;14.52;3.13;;;5.10;74.20;;;;;;5066133;28;20143;-80
2021/04/22 03:23:10;;;;;;;16.67;2.92;;;5.10;73.90;;;;;;5059586;28;20185;-80
2021/04/22 03:25:36;;;;;;;15.48;3.40;;;5.20;73.50;;;;;;5070828;28;20398;-79
2021/04/22 03:28:04;;;;;;;16.90;3.30;;;5.20;73.30;;;;;;5052111;28;20055;-79
2021/04/22 03:30:32;;;;;;;21.35;3.25;;;5.30;73.00;;;;;;5074485;28;20033;-80
2021/04/22 03:32:58;;;;;;;14.13;2.70;;;5.30;72.90;;;;;;5067059;28;20043;-80
2021/04/22 03:35:25;;;;;;;15.48;3.50;;;5.30;73.30;;;;;;5040786;28;20365;-79
2021/04/22 03:37:52;;;;;;;16.83;3.35;;;5.30;72.70;;;;;;5057325;28;20105;-80
2021/04/22 03:40:20;;;;;;;19.00;3.17;;;5.20;72.40;;;;;;5045663;28;20081;-80
2021/04/22 03:42:46;;;;;;;20.77;3.20;;;5.30;72.50;;;;;;5076474;28;20288;-80
2021/04/22 03:45:14;;;;;;;18.02;3.05;;;5.30;72.30;;;;;;5080768;28;20398;-81
2021/04/22 03:47:40;;;;;;;16.00;2.83;;;5.30;72.20;;;;;;5070756;28;20047;-79
2021/04/22 03:50:08;;;;;;;18.83;3.28;;;5.30;72.10;;;;;;5072756;28;20032;-80
2021/04/22 03:52:34;;;;;;;13.63;3.00;;;5.30;71.90;;;;;;5073330;28;20042;-80
2021/04/22 03:55:00;;;;;;;20.65;3.53;;;5.30;71.80;;;;;;5071785;28;20035;-80
2021/04/22 03:57:26;;;;;;;15.73;3.20;;;5.30;71.40;;;;;;5070741;28;20062;-80
2021/04/22 03:59:52;;;;;;;16.75;3.45;;;5.30;71.40;;;;;;5066245;28;20366;-80
2021/04/22 04:05:59;;;;;;;17.00;2.80;;;5.40;71.20;;;;;;5088183;28;20094;-80
2021/04/22 04:08:25;;;;;;;16.67;2.88;;;5.40;71.00;;;;;;5073249;28;20081;-80
2021/04/22 04:10:51;;;;;;;24.13;4.10;;;5.40;70.90;;;;;;5090187;28;20040;-80
2021/04/22 04:13:17;;;;;;;18.25;3.03;;;5.40;71.00;;;;;;5087673;28;20047;-80
2021/04/22 04:15:45;;;;;;;15.35;3.10;;;5.40;70.80;;;;;;5056788;28;20123;-80
2021/04/22 04:18:13;;;;;;;22.58;3.63;;;5.50;71.30;;;;;;5072868;28;20036;-80
2021/04/22 04:20:39;;;;;;;16.65;2.80;;;5.40;70.40;;;;;;5094137;28;20110;-80
2021/04/22 04:23:05;;;;;;;16.38;3.05;;;5.40;70.30;;;;;;5097054;28;20032;-79
2021/04/22 04:25:31;;;;;;;20.35;3.28;;;5.50;70.50;;;;;;5090953;28;20123;-79
2021/04/22 04:27:56;;;;;;;19.77;3.05;;;5.50;70.60;;;;;;5070360;28;20608;-79
2021/04/22 04:30:23;;;;;;;21.45;3.75;;;5.50;70.60;;;;;;5058601;28;20551;-80
2021/04/22 04:32:49;;;;;;;19.25;3.47;;;5.50;70.40;;;;;;5080045;28;20043;-80
2021/04/22 04:35:14;;;;;;;22.98;3.28;;;5.50;70.40;;;;;;5072960;28;20125;-79
2021/04/22 04:37:41;;;;;;;19.42;3.30;;;5.50;70.20;;;;;;5074336;28;20028;-79
2021/04/22 04:40:10;;;;;;;17.13;3.83;;;5.50;70.10;;;;;;5058709;28;20434;-79
2021/04/22 04:42:37;;;;;;;16.27;3.30;;;5.60;70.10;;;;;;5071976;28;20032;-79
2021/04/22 04:45:05;;;;;;;21.48;3.78;;;5.60;69.90;;;;;;5067384;28;20039;-80
2021/04/22 04:47:31;;;;;;;15.38;2.70;;;5.60;69.90;;;;;;5057405;28;20040;-80
2021/04/22 04:49:57;;;;;;;15.88;3.20;;;5.60;69.60;;;;;;5071926;28;20050;-79
2021/04/22 04:52:23;;;;;;;18.13;3.00;;;5.60;69.40;;;;;;5041044;28;20562;-79
2021/04/22 04:54:49;;;;;;;13.50;2.70;;;5.60;69.20;;;;;;5091558;28;20115;-81
2021/04/22 04:57:14;;;;;;;19.48;3.08;;;5.60;69.10;;;;;;5052967;28;20454;-80
2021/04/22 04:59:40;;;;;;;17.13;2.88;;;5.60;68.90;;;;;;5086368;28;20032;-79
2021/04/22 05:02:06;;;;;;;9.23;2.42;;;5.60;68.90;;;;;;5074717;28;20093;-80
2021/04/22 05:04:32;;;;;;;17.63;2.83;;;5.60;68.90;;;;;;5073279;28;20144;-79
2021/04/22 05:06:59;;;;;;;13.98;3.13;;;5.60;68.90;;;;;;5069386;28;20051;-80
2021/04/22 05:09:25;;;;;;;14.35;2.95;;;5.70;69.00;;;;;;5071461;28;20423;-80
2021/04/22 05:11:51;;;;;;;15.98;2.67;;;5.70;69.10;;;;;;5078143;28;20020;-80
2021/04/22 05:14:16;;;;;;;17.90;3.95;;;5.70;69.10;;;;;;5080193;28;20047;-80
2021/04/22 05:16:45;;;;;;;16.85;3.22;;;5.80;69.00;;;;;;5060466;28;20036;-80
2021/04/22 05:19:11;;;;;;;19.52;2.88;;;5.80;69.00;;;;;;5086955;28;20044;-79
2021/04/22 05:21:37;;;;;;;20.10;3.20;;;5.80;69.10;;;;;;5098687;28;20081;-79
2021/04/22 05:24:03;;;;;;;13.63;3.10;;;5.90;69.00;;;;;;5063846;28;20102;-80
2021/04/22 05:26:29;;;;;;;20.45;3.42;;;5.90;69.20;;;;;;5080598;28;20055;-78
2021/04/22 05:28:55;;;;;;;20.20;3.10;;;6.00;69.10;;;;;;5059758;28;20090;-79
2021/04/22 05:31:23;;;;;;;20.55;3.78;;;6.00;68.80;;;;;;5032346;28;20709;-80
2021/04/22 05:33:49;;;;;;;11.57;2.45;;;6.00;68.50;;;;;;5065645;28;20043;-80
2021/04/22 05:36:14;;;;;;;18.40;3.53;;;6.10;69.20;;;;;;5032354;28;20393;-79
2021/04/22 05:38:41;;;;;;;21.35;3.58;;;6.10;68.30;;;;;;5059519;28;20477;-80
2021/04/22 05:41:07;;;;;;;14.10;2.75;;;6.00;68.40;;;;;;5073810;28;22100;-80
2021/04/22 05:43:35;;;;;;;15.63;2.95;;;6.10;68.40;;;;;;5073416;28;20054;-80
2021/04/22 05:46:02;;;;;;;14.15;2.70;;;6.10;68.30;;;;;;5032883;28;20036;-80
2021/04/22 05:48:28;;;;;;;17.08;3.28;;;6.20;68.20;;;;;;5071855;28;20604;-79
2021/04/22 05:50:54;;;;;;;15.73;3.13;;;6.20;67.90;;;;;;5047671;28;20036;-79
2021/04/22 05:53:21;;;;;;;12.85;2.90;;;6.40;67.90;;;;;;5076135;28;20031;-80
2021/04/22 05:55:47;;;;;;;15.10;2.97;;;6.30;67.90;;;;;;5085639;28;20146;-78
2021/04/22 05:58:13;;;;;;;16.77;3.20;;;6.40;67.80;;;;;;5072393;28;20122;-79
2021/04/22 06:00:39;;;;;;;17.15;3.10;;;6.50;67.80;;;;;;5049054;28;20067;-79
2021/04/22 06:03:05;;;;;;;18.65;3.97;;;6.50;67.60;;;;;;5087903;28;20043;-79
2021/04/22 06:05:31;;;;;;;17.67;3.42;;;6.60;67.70;;;;;;5057152;28;20036;-78
2021/04/22 06:07:58;;;;;;;16.58;3.15;;;6.60;67.70;;;;;;5065361;28;20184;-79
2021/04/22 06:10:25;;;;;;;19.13;2.88;;;6.70;67.40;;;;;;5051430;28;20058;-79
2021/04/22 06:12:51;;;;;;;20.00;3.20;;;6.70;67.40;;;;;;5074862;28;20040;-78
2021/04/22 06:15:18;;;;;;;19.45;3.42;;;6.80;67.50;;;;;;5072186;28;20054;-79
2021/04/22 06:17:45;;;;;;;20.50;3.15;;;6.80;66.50;;;;;;5054080;28;20043;-78
2021/04/22 06:20:15;;;;;;;23.58;3.47;;;6.90;66.20;;;;;;5082415;28;20501;-79
2021/04/22 06:22:41;;;;;;;14.32;3.50;;;6.90;65.90;;;;;;5080810;28;20033;-79
2021/04/22 06:25:08;;;;;;;20.92;3.28;;;6.90;65.70;;;;;;5083339;28;20043;-79
2021/04/22 06:27:38;;;;;;;18.35;3.40;;;7.00;65.50;;;;;;5086696;28;20131;-79
2021/04/22 06:30:06;;;;;;;22.48;3.17;;;7.00;65.30;;;;;;5081253;28;20062;-79
2021/04/22 06:32:33;;;;;;;21.00;4.03;;;7.10;65.20;;;;;;5080892;28;20036;-78
2021/04/22 06:34:59;;;;;;;16.42;2.55;;;7.10;65.00;;;;;;5054527;28;21094;-81
2021/04/22 06:37:25;;;;;;;19.08;3.08;;;7.10;65.00;;;;;;5038555;28;20174;-79
2021/04/22 06:39:52;;;;;;;16.27;4.13;;;7.20;65.00;;;;;;5077275;28;20152;-78
2021/04/22 06:42:18;;;;;;;21.08;3.50;;;7.30;64.60;;;;;;5077370;28;20096;-79
2021/04/22 06:44:43;;;;;;;15.00;3.33;;;7.30;64.50;;;;;;5086238;28;20056;-81
2021/04/22 06:47:12;;;;;;;20.45;3.47;;;7.30;64.10;;;;;;5062691;28;20040;-79
2021/04/22 06:49:39;;;;;;;18.73;3.35;;;7.30;64.20;;;;;;5071336;28;20572;-79
2021/04/22 06:52:05;;;;;;;17.27;3.17;;;7.40;64.10;;;;;;5089263;28;20064;-79
2021/04/22 06:54:34;;;;;;;16.10;3.15;;;7.40;63.80;;;;;;5076544;28;20028;-77
2021/04/22 06:57:00;;;;;;;16.48;3.35;;;7.50;63.40;;;;;;5090668;28;20025;-80
2021/04/22 06:59:27;;;;;;;14.80;3.50;;;7.50;63.20;;;;;;5089048;28;20047;-78
2021/04/22 07:01:53;;;;;;;15.90;3.65;;;7.50;62.60;;;;;;5089517;28;20047;-79
2021/04/22 07:04:19;;;;;;;15.35;3.47;;;7.60;62.60;;;;;;5070682;28;20106;-79
2021/04/22 07:06:45;;;;;;;18.83;3.38;;;7.70;63.10;;;;;;5077874;28;20047;-80
2021/04/22 07:09:12;;;;;;;22.40;3.85;;;7.80;61.90;;;;;;5065115;28;20037;-79
2021/04/22 07:11:38;;;;;;;19.58;3.53;;;7.80;61.70;;;;;;5075309;28;20036;-80
2021/04/22 07:14:04;;;;;;;17.70;3.42;;;7.80;61.20;;;;;;5035130;28;20070;-81
2021/04/22 07:16:30;;;;;;;21.48;4.32;;;7.80;60.80;;;;;;5032628;28;20036;-79
2021/04/22 07:18:56;;;;;;;16.02;2.85;;;7.80;60.80;;;;;;5062261;28;20062;-80
2021/04/22 07:21:42;;;;;;;14.52;3.10;;;7.80;60.90;;;;;;5048537;28;20153;-80
2021/04/22 07:24:27;;;;;;;15.02;3.28;;;7.80;61.40;;;;;;5032180;28;20044;-82
2021/04/22 07:27:13;;;;;;;23.75;3.58;;;7.80;61.00;;;;;;5049816;28;20040;-80
2021/04/22 07:29:45;;;;;;;15.15;3.10;;;7.90;61.50;;;;;;5077850;28;20035;-80
2021/04/22 07:32:15;;;;;;;15.77;3.20;;;7.90;61.10;;;;;;5061400;28;20063;-80
2021/04/22 07:34:42;;;;;;;13.10;3.17;;;8.00;61.40;;;;;;5069729;28;20033;-82
2021/04/22 07:37:08;;;;;;;12.75;3.08;;;8.10;61.30;;;;;;5070439;28;20043;-80
2021/04/22 07:39:34;;;;;;;9.95;2.50;;;8.10;61.20;;;;;;5074200;28;20407;-81
2021/04/22 07:42:00;;;;;;;10.82;2.40;;;8.10;61.10;;;;;;5053287;28;20044;-80
2021/04/22 07:44:26;;;;;;;15.88;2.90;;;8.20;60.90;;;;;;5070810;28;20197;-84
2021/04/22 07:46:52;;;;;;;15.48;2.58;;;8.30;60.50;;;;;;5070889;28;20527;-83
2021/04/22 07:49:18;;;;;;;14.60;3.00;;;8.30;60.20;;;;;;5056188;28;20032;-82
2021/04/22 07:51:44;;;;;;;18.35;3.67;;;8.30;60.20;;;;;;5055625;28;20129;-80
2021/04/22 07:54:10;;;;;;;15.15;3.00;;;8.30;60.10;;;;;;5042710;28;20035;-81
2021/04/22 07:56:36;;;;;;;13.88;2.92;;;8.30;60.00;;;;;;5041838;28;20560;-80
2021/04/22 07:59:03;;;;;;;12.02;2.90;;;8.40;60.00;;;;;;5054911;28;20039;-80
2021/04/22 08:01:29;;;;;;;11.95;3.03;;;8.40;60.00;;;;;;5067771;28;20032;-80
2021/04/22 08:03:55;;;;;;;14.38;2.78;;;8.40;60.10;;;;;;5070748;28;20032;-80
2021/04/22 08:06:21;;;;;;;11.82;3.05;;;8.50;60.50;;;;;;5069255;28;20687;-82
2021/04/22 08:08:47;;;;;;;17.73;3.10;;;8.60;60.90;;;;;;5070055;28;20043;-80
2021/04/22 08:11:13;;;;;;;13.98;3.00;;;8.70;61.10;;;;;;5074934;28;20097;-80
2021/04/22 08:13:39;;;;;;;13.40;2.92;;;8.90;60.70;;;;;;5081531;28;20024;-79
2021/04/22 08:16:06;;;;;;;12.02;2.90;;;9.10;60.40;;;;;;5108104;22;20044;-94
2021/04/22 08:18:38;;;;;;;12.63;2.60;;;9.10;59.60;;;;;;5052163;28;20052;-93
2021/04/22 08:27:30;;;;;;;11.95;2.60;;;9.40;59.90;;;;;;5049724;28;20051;-94
2021/04/22 08:30:29;;;;;;;7.25;2.70;;;9.80;58.50;;;;;;5061333;28;20431;-93
2021/04/22 08:37:29;;;;;;;15.90;3.80;;;9.90;56.90;;;;;;4999379;28;20125;-92
2021/04/22 08:40:41;;;;;;;11.77;2.88;;;9.90;55.90;;;;;;5070071;28;20084;-93
2021/04/22 08:44:03;;;;;;;8.50;2.53;;;9.80;56.00;;;;;;5058243;28;20048;-93
2021/04/22 08:47:25;;;;;;;14.00;2.55;;;9.60;56.30;;;;;;5033006;28;20597;-94
2021/04/22 08:50:30;;;;;;;9.77;2.10;;;9.50;56.60;;;;;;5019074;28;20382;-95
2021/04/22 08:57:27;;;;;;;;;;;;;;;;;;;;;
2021/04/22 09:00:52;;;;;;;14.95;2.80;;;9.80;57.60;;;;;;4907562;28;20060;-94
2021/04/22 09:10:28;;;;;;;13.85;2.90;;;9.50;58.20;;;;;;5036665;28;20048;-93
2021/04/22 09:14:00;;;;;;;14.25;3.30;;;9.30;58.40;;;;;;5060678;28;20036;-93
2021/04/22 09:16:49;;;;;;;9.85;2.15;;;9.20;58.80;;;;;;5029277;28;20419;-93
2021/04/22 09:19:22;;;;;;;11.77;2.22;;;9.30;58.90;;;;;;5048780;28;20136;-93
2021/04/22 09:22:01;;;;;;;15.38;2.92;;;9.70;58.50;;;;;;5046009;28;20093;-94
2021/04/22 09:25:04;;;;;;;27.88;3.55;;;10.00;56.80;;;;;;5013777;28;20105;-93
2021/04/22 09:28:20;;;;;;;;;;;;;;;;;;;;;
2021/04/22 09:31:32;;;;;;;12.52;2.53;;;10.20;55.40;;;;;;4968571;28;20047;-93
2021/04/22 09:34:52;;;;;;;;;;;;;;;;;;;;;
2021/04/22 09:37:53;;;;;;;14.70;3.00;;;10.00;56.00;;;;;;4957493;28;20514;-93
2021/04/22 09:41:26;;;;;;;14.15;2.38;;;10.10;56.20;;;;;;4929076;28;20138;-93
2021/04/22 09:48:38;;;;;;;14.07;3.00;;;10.30;55.50;;;;;;4920810;28;20315;-92
2021/04/22 09:52:07;;;;;;;13.55;2.80;;;10.30;56.10;;;;;;4925162;28;20295;-95
2021/04/22 09:55:29;;;;;;;7.32;2.70;;;10.30;56.00;;;;;;4866213;29;22167;-94
2021/04/22 09:58:23;;;;;;;12.55;2.85;;;10.50;55.90;;;;;;4842456;29;20065;-91
2021/04/22 10:01:33;;;;;;;20.98;2.95;;;10.80;55.30;;;;;;4921260;28;20051;-93
2021/04/22 10:04:36;;;;;;;16.95;3.03;;;10.90;54.50;;;;;;4990639;28;20140;-93
2021/04/22 10:07:46;;;;;;;18.05;3.30;;;11.00;54.20;;;;;;5007274;28;20199;-93
2021/04/22 10:11:36;;;;;;;17.08;3.17;;;11.40;54.30;;;;;;5020090;28;20132;-93
2021/04/22 10:14:24;;;;;;;;;;;;;;;;;;;;;
2021/04/22 10:18:08;;;;;;;;;;;;;;;;;;;;;
2021/04/22 10:21:26;;;;;;;14.18;3.17;;;11.50;53.80;;;;;;4942696;28;20047;-92
2021/04/22 10:24:33;;;;;;;16.45;2.80;;;11.20;54.60;;;;;;5006844;28;20052;-93
2021/04/22 10:27:32;;;;;;;11.50;2.53;;;11.00;55.10;;;;;;4998062;28;20044;-91
2021/04/22 10:34:37;;;;;;;9.80;1.95;;;11.10;54.80;;;;;;5022599;28;20045;-92
2021/04/22 10:38:33;;;;;;;;;;;;;;;;;;;;;
2021/04/22 10:50:00;;;;;;;7.38;1.98;;;11.40;50.60;;;;;;5005645;28;20059;-93
2021/04/22 10:53:17;;;;;;;7.35;2.20;;;11.40;50.50;;;;;;5011211;28;20049;-93
2021/04/22 10:56:41;;;;;;;5.80;1.92;;;11.40;50.80;;;;;;5074685;28;20048;-93
2021/04/22 10:59:49;;;;;;;9.80;2.60;;;11.60;50.40;;;;;;5073708;28;20052;-94
2021/04/22 11:02:54;;;;;;;8.45;2.03;;;12.10;50.50;;;;;;5084065;28;20112;-94
2021/04/22 11:05:33;;;;;;;8.60;2.50;;;12.30;50.00;;;;;;5069012;28;20098;-94
2021/04/22 11:09:02;;;;;;;;;;;;;;;;;;;;;
2021/04/22 11:12:15;;;;;;;;;;;;;;;;;;;;;
2021/04/22 11:15:12;;;;;;;8.82;2.45;;;12.00;50.80;;;;;;5043464;28;20403;-92
2021/04/22 11:21:45;;;;;;;5.93;2.22;;;11.90;50.00;;;;;;5077229;28;20062;-93
2021/04/22 11:24:52;;;;;;;14.25;3.00;;;11.90;50.90;;;;;;5045019;28;20131;-93
2021/04/22 11:28:01;;;;;;;10.13;2.65;;;12.10;52.00;;;;;;5046808;28;20054;-94
2021/04/22 11:30:40;;;;;;;12.02;2.83;;;12.10;51.10;;;;;;5073083;28;20032;-93
2021/04/22 11:34:01;;;;;;;11.27;2.70;;;11.90;50.80;;;;;;5066575;28;20044;-93
2021/04/22 11:43:26;;;;;;;15.27;2.88;;;12.20;50.20;;;;;;5073837;28;20089;-93
2021/04/22 11:46:24;;;;;;;;;;;;;;;;;;;;;
2021/04/22 11:49:40;;;;;;;13.98;2.95;;;12.10;49.90;;;;;;5050650;28;20040;-96
2021/04/22 11:53:01;;;;;;;18.98;2.97;;;12.10;51.30;;;;;;5057721;28;20559;-90
2021/04/22 11:55:31;;;;;;;9.25;2.90;;;12.40;50.30;;;;;;5050990;22;20650;-83
2021/04/22 11:58:08;;;;;;;13.82;3.20;;;12.40;49.90;;;;;;5095817;27;20108;-82
2021/04/22 12:00:40;;;;;;;14.35;2.83;;;12.40;50.20;;;;;;5076207;28;20105;-82
2021/04/22 12:03:08;;;;;;;12.27;2.50;;;12.40;50.40;;;;;;5078716;28;20506;-82
2021/04/22 12:05:35;;;;;;;7.65;2.60;;;12.40;50.00;;;;;;5085476;28;20032;-82
2021/04/22 12:08:07;;;;;;;10.73;3.03;;;12.60;50.00;;;;;;5085107;28;20417;-82
2021/04/22 12:10:36;;;;;;;11.32;2.60;;;12.90;49.30;;;;;;5085700;28;20074;-81
2021/04/22 12:13:21;;;;;;;14.07;3.17;;;13.00;48.70;;;;;;5091157;28;20050;-82
2021/04/22 12:15:57;;;;;;;14.00;3.10;;;13.00;47.60;;;;;;5069292;28;20094;-81
2021/04/22 12:18:26;;;;;;;16.02;3.10;;;12.90;48.90;;;;;;5082999;28;20028;-82
2021/04/22 12:21:06;;;;;;;15.90;3.10;;;12.70;49.00;;;;;;5090621;28;20430;-81
2021/04/22 12:23:33;;;;;;;9.38;2.55;;;12.50;49.00;;;;;;5093384;28;20020;-82
2021/04/22 12:26:21;;;;;;;12.40;2.90;;;12.50;49.60;;;;;;5102959;28;20409;-82
2021/04/22 12:28:58;;;;;;;7.40;2.75;;;12.90;49.80;;;;;;5092813;28;20047;-83
2021/04/22 12:31:29;;;;;;;9.00;2.70;;;13.20;48.50;;;;;;5079616;28;20036;-82
2021/04/22 12:33:58;;;;;;;5.10;2.10;;;13.20;48.80;;;;;;5086081;28;20082;-82
2021/04/22 12:36:24;;;;;;;10.70;2.65;;;13.20;48.10;;;;;;5083377;28;20081;-82
2021/04/22 12:38:50;;;;;;;13.88;2.70;;;13.00;47.70;;;;;;5048505;28;20115;-81
2021/04/22 12:41:19;;;;;;;15.73;3.08;;;13.00;47.90;;;;;;5085035;28;20135;-82
2021/04/22 12:43:49;;;;;;;13.60;2.45;;;12.90;47.80;;;;;;5081470;28;20044;-81
2021/04/22 12:46:18;;;;;;;8.98;2.38;;;13.00;48.20;;;;;;5101301;27;20036;-81
2021/04/22 12:48:52;;;;;;;6.50;2.70;;;13.10;47.80;;;;;;5081314;28;20592;-83
2021/04/22 12:51:18;;;;;;;11.98;2.22;;;13.10;47.20;;;;;;5086898;28;20036;-81
2021/04/22 12:53:47;;;;;;;10.88;2.45;;;13.00;47.30;;;;;;5091083;28;20038;-82
2021/04/22 12:56:16;;;;;;;10.77;2.13;;;13.00;47.40;;;;;;5086076;28;20451;-79
2021/04/22 12:58:51;;;;;;;9.20;2.40;;;12.90;47.70;;;;;;5085156;28;20545;-81
2021/04/22 13:01:24;;;;;;;15.32;2.70;;;13.10;48.10;;;;;;5082880;28;20456;-81
2021/04/22 13:03:54;;;;;;;11.65;2.70;;;13.20;47.60;;;;;;5081525;28;20198;-83
2021/04/22 13:06:22;;;;;;;11.27;2.75;;;13.70;47.80;;;;;;5099608;27;20032;-81
2021/04/22 13:08:50;;;;;;;8.13;2.30;;;13.90;46.60;;;;;;5070805;28;20039;-82
2021/04/22 13:11:20;;;;;;;15.93;2.78;;;13.70;46.50;;;;;;5082857;28;20040;-82
2021/04/22 13:13:59;;;;;;;11.23;2.53;;;13.60;46.40;;;;;;5102386;27;20035;-81
2021/04/22 13:16:27;;;;;;;10.60;2.35;;;13.40;46.00;;;;;;5084451;28;20398;-82
2021/04/22 13:19:02;;;;;;;7.95;2.22;;;13.20;47.00;;;;;;5081213;28;20040;-82
2021/04/22 13:21:38;;;;;;;7.68;2.42;;;13.30;47.40;;;;;;5100624;28;20127;-81
2021/04/22 13:24:19;;;;;;;5.40;2.03;;;13.60;47.30;;;;;;5067143;28;20023;-82
2021/04/22 13:27:04;;;;;;;11.93;2.60;;;14.10;47.00;;;;;;5087751;28;20558;-82
2021/04/22 13:29:31;;;;;;;7.53;2.28;;;14.40;47.10;;;;;;5088693;28;20142;-81
2021/04/22 13:32:08;;;;;;;10.45;2.65;;;14.60;46.10;;;;;;5083200;28;20033;-82
2021/04/22 13:34:52;;;;;;;15.63;3.00;;;14.30;45.00;;;;;;5102471;27;20032;-82
2021/04/22 13:37:20;;;;;;;21.77;2.85;;;14.40;45.20;;;;;;5087408;28;20393;-83
2021/04/22 13:39:52;;;;;;;11.70;2.08;;;14.40;45.60;;;;;;5097425;28;20070;-84
2021/04/22 13:42:27;;;;;;;10.20;2.58;;;14.10;44.70;;;;;;5084144;28;20040;-83
2021/04/22 13:44:55;;;;;;;10.77;2.40;;;13.70;44.50;;;;;;5086223;28;20068;-83
2021/04/22 13:47:23;;;;;;;13.07;2.47;;;13.70;46.00;;;;;;5085063;28;20078;-83
2021/04/22 13:49:51;;;;;;;10.15;2.58;;;14.00;45.60;;;;;;5070072;28;20052;-81
2021/04/22 13:52:24;;;;;;;7.65;2.20;;;14.10;45.20;;;;;;5083649;28;20123;-82
2021/04/22 13:54:53;;;;;;;10.52;2.42;;;13.90;44.90;;;;;;5097892;28;20032;-81
2021/04/22 13:57:20;;;;;;;12.00;2.55;;;13.60;45.50;;;;;;5080578;28;20115;-83
2021/04/22 13:59:51;;;;;;;23.55;3.45;;;13.40;46.00;;;;;;5094291;28;20062;-82
2021/04/22 14:02:18;;;;;;;10.00;2.65;;;13.40;46.20;;;;;;5078087;28;20060;-81
2021/04/22 14:04:55;;;;;;;10.88;2.20;;;13.30;46.70;;;;;;5080495;28;20038;-82
2021/04/22 14:07:29;;;;;;;9.95;2.72;;;13.90;47.10;;;;;;5065682;28;20044;-83
2021/04/22 14:10:02;;;;;;;11.93;2.47;;;14.70;46.30;;;;;;5063039;28;20088;-82
2021/04/22 14:12:36;;;;;;;6.32;2.30;;;15.30;45.70;;;;;;5082427;28;20048;-83
2021/04/22 14:15:08;;;;;;;9.77;2.30;;;15.30;44.40;;;;;;5065137;28;20032;-84
2021/04/22 14:17:35;;;;;;;9.05;2.47;;;14.80;43.60;;;;;;5079933;28;20084;-81
2021/04/22 14:20:04;;;;;;;13.73;2.47;;;14.30;44.70;;;;;;5086842;28;20036;-82
2021/04/22 14:22:30;;;;;;;9.27;2.25;;;14.20;45.60;;;;;;5068921;28;20493;-82
2021/04/22 14:24:58;;;;;;;13.25;2.75;;;14.40;45.60;;;;;;5064198;28;20385;-83
2021/04/22 14:27:24;;;;;;;9.10;2.53;;;14.50;45.20;;;;;;5059584;28;20085;-82